logo dgac
Martes 20 de Noviembre del 2018
Buscar por aerodromo o helipuerto
Ingrese nombre de aeródromo, localidad o designador OACI:
METAR del 20-11-2018 a las 14:00 UTC
METAR SCIE 201400Z 23012KT 200V260 CAVOK 18/09 Q1017
Viento: dirección 230 grados, velocidad 12 nudos
Viento con dirección variable entre 200 y 260 grados
Visibilidad: 10 km o más,
    sin nubes bajo los 5.000 pies o bajo del MSA (Mínimo de Seguridad del Aeródromo),
    sin cumulonimbus, y sin fenómenos de tiempo significativo en el aeródromo o alrededores
Temperatura: 18 °C
Rocío: 9 °C
Humedad_relativa: 56%
Presión: 1017 hPa
METAR del 20-11-2018 a las 13:00 UTC
METAR SCIE 201300Z 21009KT 180V240 CAVOK 17/11 Q1017
Viento: dirección 210 grados, velocidad 9 nudos
Viento con dirección variable entre 180 y 240 grados
Visibilidad: 10 km o más,
    sin nubes bajo los 5.000 pies o bajo del MSA (Mínimo de Seguridad del Aeródromo),
    sin cumulonimbus, y sin fenómenos de tiempo significativo en el aeródromo o alrededores
Temperatura: 17 °C
Rocío: 11 °C
Humedad_relativa: 68%
Presión: 1017 hPa
METAR del 20-11-2018 a las 13:00 UTC
METAR SCIE 201300Z 21009KT 180V240 CAVOK 17/11 Q1017
Viento: dirección 210 grados, velocidad 9 nudos
Viento con dirección variable entre 180 y 240 grados
Visibilidad: 10 km o más,
    sin nubes bajo los 5.000 pies o bajo del MSA (Mínimo de Seguridad del Aeródromo),
    sin cumulonimbus, y sin fenómenos de tiempo significativo en el aeródromo o alrededores
Temperatura: 17 °C
Rocío: 11 °C
Humedad_relativa: 68%
Presión: 1017 hPa
METAR del 20-11-2018 a las 12:00 UTC
METAR SCIE 201200Z 20008KT CAVOK 15/11 Q1017
Viento: dirección 200 grados, velocidad 8 nudos
Visibilidad: 10 km o más,
    sin nubes bajo los 5.000 pies o bajo del MSA (Mínimo de Seguridad del Aeródromo),
    sin cumulonimbus, y sin fenómenos de tiempo significativo en el aeródromo o alrededores
Temperatura: 15 °C
Rocío: 11 °C
Humedad_relativa: 77%
Presión: 1017 hPa
METAR del 20-11-2018 a las 12:00 UTC
METAR SCIE 201200Z 20008KT CAVOK 15/11 Q1017
Viento: dirección 200 grados, velocidad 8 nudos
Visibilidad: 10 km o más,
    sin nubes bajo los 5.000 pies o bajo del MSA (Mínimo de Seguridad del Aeródromo),
    sin cumulonimbus, y sin fenómenos de tiempo significativo en el aeródromo o alrededores
Temperatura: 15 °C
Rocío: 11 °C
Humedad_relativa: 77%
Presión: 1017 hPa
METAR del 20-11-2018 a las 11:00 UTC
METAR SCIE 201100Z 00000KT CAVOK 13/11 Q1016
Visibilidad: 10 km o más,
    sin nubes bajo los 5.000 pies o bajo del MSA (Mínimo de Seguridad del Aeródromo),
    sin cumulonimbus, y sin fenómenos de tiempo significativo en el aeródromo o alrededores
Temperatura: 13 °C
Rocío: 11 °C
Humedad_relativa: 88%
Presión: 1016 hPa
METAR del 20-11-2018 a las 11:00 UTC
METAR SCIE 201100Z 00000KT CAVOK 13/11 Q1016
Visibilidad: 10 km o más,
    sin nubes bajo los 5.000 pies o bajo del MSA (Mínimo de Seguridad del Aeródromo),
    sin cumulonimbus, y sin fenómenos de tiempo significativo en el aeródromo o alrededores
Temperatura: 13 °C
Rocío: 11 °C
Humedad_relativa: 88%
Presión: 1016 hPa
METAR del 20-11-2018 a las 10:00 UTC
METAR SCIE 201000Z 14004KT CAVOK 10/09 Q1016
Viento: dirección 140 grados, velocidad 4 nudos
Visibilidad: 10 km o más,
    sin nubes bajo los 5.000 pies o bajo del MSA (Mínimo de Seguridad del Aeródromo),
    sin cumulonimbus, y sin fenómenos de tiempo significativo en el aeródromo o alrededores
Temperatura: 10 °C
Rocío: 9 °C
Humedad_relativa: 94%
Presión: 1016 hPa
METAR del 20-11-2018 a las 09:00 UTC
METAR SCIE 200900Z 14004KT CAVOK 10/09 Q1015
Viento: dirección 140 grados, velocidad 4 nudos
Visibilidad: 10 km o más,
    sin nubes bajo los 5.000 pies o bajo del MSA (Mínimo de Seguridad del Aeródromo),
    sin cumulonimbus, y sin fenómenos de tiempo significativo en el aeródromo o alrededores
Temperatura: 10 °C
Rocío: 9 °C
Humedad_relativa: 94%
Presión: 1015 hPa
METAR del 20-11-2018 a las 08:00 UTC
METAR SCIE 200800Z 16004KT CAVOK 10/09 Q1015
Viento: dirección 160 grados, velocidad 4 nudos
Visibilidad: 10 km o más,
    sin nubes bajo los 5.000 pies o bajo del MSA (Mínimo de Seguridad del Aeródromo),
    sin cumulonimbus, y sin fenómenos de tiempo significativo en el aeródromo o alrededores
Temperatura: 10 °C
Rocío: 9 °C
Humedad_relativa: 94%
Presión: 1015 hPa